sensor_id;sensor_type;location;lat;lon;timestamp;temperature;humidity
24560;DHT22;12727;49.934;8.656;2022-09-09T00:00:56;17.60;99.90
24560;DHT22;12727;49.934;8.656;2022-09-09T00:03:47;17.60;99.90
24560;DHT22;12727;49.934;8.656;2022-09-09T00:06:24;17.50;99.90
24560;DHT22;12727;49.934;8.656;2022-09-09T00:09:04;17.50;99.90
24560;DHT22;12727;49.934;8.656;2022-09-09T00:14:39;17.40;99.90
24560;DHT22;12727;49.934;8.656;2022-09-09T00:17:17;17.30;99.90
24560;DHT22;12727;49.934;8.656;2022-09-09T00:20:00;17.30;99.90
24560;DHT22;12727;49.934;8.656;2022-09-09T00:22:29;17.20;99.90
24560;DHT22;12727;49.934;8.656;2022-09-09T00:25:23;17.30;99.90
24560;DHT22;12727;49.934;8.656;2022-09-09T00:27:51;17.20;99.90
24560;DHT22;12727;49.934;8.656;2022-09-09T00:32:46;17.20;99.90
24560;DHT22;12727;49.934;8.656;2022-09-09T00:35:29;17.20;99.90
24560;DHT22;12727;49.934;8.656;2022-09-09T00:38:00;17.20;99.90
24560;DHT22;12727;49.934;8.656;2022-09-09T00:40:32;17.20;99.90
24560;DHT22;12727;49.934;8.656;2022-09-09T00:43:27;17.20;99.90
24560;DHT22;12727;49.934;8.656;2022-09-09T00:48:52;17.30;99.90
24560;DHT22;12727;49.934;8.656;2022-09-09T00:51:51;17.30;99.90
24560;DHT22;12727;49.934;8.656;2022-09-09T00:54:33;17.30;99.90
24560;DHT22;12727;49.934;8.656;2022-09-09T00:59:52;17.30;99.90
24560;DHT22;12727;49.934;8.656;2022-09-09T01:02:27;17.30;99.90
24560;DHT22;12727;49.934;8.656;2022-09-09T01:04:54;17.30;99.90
24560;DHT22;12727;49.934;8.656;2022-09-09T01:07:20;17.30;99.90
24560;DHT22;12727;49.934;8.656;2022-09-09T01:09:54;17.30;99.90
24560;DHT22;12727;49.934;8.656;2022-09-09T01:12:28;17.40;99.90
24560;DHT22;12727;49.934;8.656;2022-09-09T01:18:13;17.40;99.90
24560;DHT22;12727;49.934;8.656;2022-09-09T01:21:22;17.40;99.90
24560;DHT22;12727;49.934;8.656;2022-09-09T01:24:08;17.40;99.90
24560;DHT22;12727;49.934;8.656;2022-09-09T01:26:43;17.40;99.90
24560;DHT22;12727;49.934;8.656;2022-09-09T01:29:13;17.30;99.90
24560;DHT22;12727;49.934;8.656;2022-09-09T01:31:57;17.30;99.90
24560;DHT22;12727;49.934;8.656;2022-09-09T01:34:34;17.30;99.90
24560;DHT22;12727;49.934;8.656;2022-09-09T01:37:09;17.30;99.90
24560;DHT22;12727;49.934;8.656;2022-09-09T01:39:36;17.30;99.90
24560;DHT22;12727;49.934;8.656;2022-09-09T01:42:04;17.20;99.90
24560;DHT22;12727;49.934;8.656;2022-09-09T01:44:31;17.20;99.90
24560;DHT22;12727;49.934;8.656;2022-09-09T01:46:57;17.20;99.90
24560;DHT22;12727;49.934;8.656;2022-09-09T01:49:23;17.10;99.90
24560;DHT22;12727;49.934;8.656;2022-09-09T01:51:53;17.10;99.90
24560;DHT22;12727;49.934;8.656;2022-09-09T01:54:21;17.10;99.90
24560;DHT22;12727;49.934;8.656;2022-09-09T01:56:57;17.00;99.90
24560;DHT22;12727;49.934;8.656;2022-09-09T01:59:54;17.00;99.90
24560;DHT22;12727;49.934;8.656;2022-09-09T02:02:30;17.00;99.90
24560;DHT22;12727;49.934;8.656;2022-09-09T02:05:48;17.00;99.90
24560;DHT22;12727;49.934;8.656;2022-09-09T02:08:07;16.90;99.90
24560;DHT22;12727;49.934;8.656;2022-09-09T02:11:22;16.90;99.90
24560;DHT22;12727;49.934;8.656;2022-09-09T02:13:22;17.00;99.90
24560;DHT22;12727;49.934;8.656;2022-09-09T02:19:02;17.00;99.90
24560;DHT22;12727;49.934;8.656;2022-09-09T02:21:30;17.00;99.90
24560;DHT22;12727;49.934;8.656;2022-09-09T02:23:59;17.00;99.90
24560;DHT22;12727;49.934;8.656;2022-09-09T02:26:31;17.10;99.90
24560;DHT22;12727;49.934;8.656;2022-09-09T02:29:00;17.00;99.90
24560;DHT22;12727;49.934;8.656;2022-09-09T02:31:27;17.10;99.90
24560;DHT22;12727;49.934;8.656;2022-09-09T02:33:59;17.10;99.90
24560;DHT22;12727;49.934;8.656;2022-09-09T02:36:28;17.20;99.90
24560;DHT22;12727;49.934;8.656;2022-09-09T02:38:55;17.20;99.90
24560;DHT22;12727;49.934;8.656;2022-09-09T02:41:27;17.20;99.90
24560;DHT22;12727;49.934;8.656;2022-09-09T02:43:53;17.30;99.90
24560;DHT22;12727;49.934;8.656;2022-09-09T02:49:25;17.40;99.90
24560;DHT22;12727;49.934;8.656;2022-09-09T02:52:07;17.40;99.90
24560;DHT22;12727;49.934;8.656;2022-09-09T02:54:35;17.40;99.90
24560;DHT22;12727;49.934;8.656;2022-09-09T02:57:12;17.40;99.90
24560;DHT22;12727;49.934;8.656;2022-09-09T02:59:40;17.50;99.90
24560;DHT22;12727;49.934;8.656;2022-09-09T03:02:07;17.50;99.90
24560;DHT22;12727;49.934;8.656;2022-09-09T03:04:32;17.50;99.90
24560;DHT22;12727;49.934;8.656;2022-09-09T03:06:58;17.50;99.90
24560;DHT22;12727;49.934;8.656;2022-09-09T03:09:24;17.50;99.90
24560;DHT22;12727;49.934;8.656;2022-09-09T03:11:51;17.40;99.90
24560;DHT22;12727;49.934;8.656;2022-09-09T03:14:17;17.30;99.90
24560;DHT22;12727;49.934;8.656;2022-09-09T03:16:46;17.30;99.90
24560;DHT22;12727;49.934;8.656;2022-09-09T03:19:12;17.20;99.90
24560;DHT22;12727;49.934;8.656;2022-09-09T03:21:37;17.10;99.90
24560;DHT22;12727;49.934;8.656;2022-09-09T03:24:04;17.10;99.90
24560;DHT22;12727;49.934;8.656;2022-09-09T03:26:29;17.00;99.90
24560;DHT22;12727;49.934;8.656;2022-09-09T03:28:56;17.00;99.90
24560;DHT22;12727;49.934;8.656;2022-09-09T03:31:21;16.90;99.90
24560;DHT22;12727;49.934;8.656;2022-09-09T03:33:47;16.90;99.90
24560;DHT22;12727;49.934;8.656;2022-09-09T03:36:14;17.00;99.90
24560;DHT22;12727;49.934;8.656;2022-09-09T03:38:40;16.90;99.90
24560;DHT22;12727;49.934;8.656;2022-09-09T03:41:06;16.80;99.90
24560;DHT22;12727;49.934;8.656;2022-09-09T03:43:33;16.80;99.90
24560;DHT22;12727;49.934;8.656;2022-09-09T03:45:58;16.80;99.90
24560;DHT22;12727;49.934;8.656;2022-09-09T03:48:24;16.80;99.90
24560;DHT22;12727;49.934;8.656;2022-09-09T03:50:52;16.80;99.90
24560;DHT22;12727;49.934;8.656;2022-09-09T03:53:19;16.80;99.90
24560;DHT22;12727;49.934;8.656;2022-09-09T03:55:47;16.70;99.90
24560;DHT22;12727;49.934;8.656;2022-09-09T03:58:16;16.80;99.90
24560;DHT22;12727;49.934;8.656;2022-09-09T04:00:43;16.70;99.90
24560;DHT22;12727;49.934;8.656;2022-09-09T04:03:10;16.60;99.90
24560;DHT22;12727;49.934;8.656;2022-09-09T04:05:36;16.50;99.90
24560;DHT22;12727;49.934;8.656;2022-09-09T04:08:07;16.50;99.90
24560;DHT22;12727;49.934;8.656;2022-09-09T04:10:34;16.50;99.90
24560;DHT22;12727;49.934;8.656;2022-09-09T04:13:02;16.50;99.90
24560;DHT22;12727;49.934;8.656;2022-09-09T04:15:27;16.40;99.90
24560;DHT22;12727;49.934;8.656;2022-09-09T04:17:54;16.40;99.90
24560;DHT22;12727;49.934;8.656;2022-09-09T04:20:19;16.40;99.90
24560;DHT22;12727;49.934;8.656;2022-09-09T04:22:45;16.40;99.90
24560;DHT22;12727;49.934;8.656;2022-09-09T04:25:10;16.40;99.90
24560;DHT22;12727;49.934;8.656;2022-09-09T04:27:36;16.30;99.90
24560;DHT22;12727;49.934;8.656;2022-09-09T04:30:02;16.40;99.90
24560;DHT22;12727;49.934;8.656;2022-09-09T04:32:27;16.40;99.90
24560;DHT22;12727;49.934;8.656;2022-09-09T04:34:53;16.40;99.90
24560;DHT22;12727;49.934;8.656;2022-09-09T04:37:18;16.40;99.90
24560;DHT22;12727;49.934;8.656;2022-09-09T04:39:44;16.40;99.90
24560;DHT22;12727;49.934;8.656;2022-09-09T04:42:10;16.50;99.90
24560;DHT22;12727;49.934;8.656;2022-09-09T04:44:38;16.50;99.90
24560;DHT22;12727;49.934;8.656;2022-09-09T04:47:04;16.50;99.90
24560;DHT22;12727;49.934;8.656;2022-09-09T04:49:30;16.50;99.90
24560;DHT22;12727;49.934;8.656;2022-09-09T04:51:56;16.50;99.90
24560;DHT22;12727;49.934;8.656;2022-09-09T04:54:22;16.50;99.90
24560;DHT22;12727;49.934;8.656;2022-09-09T04:56:50;16.50;99.90
24560;DHT22;12727;49.934;8.656;2022-09-09T04:59:16;16.50;99.90
24560;DHT22;12727;49.934;8.656;2022-09-09T05:01:41;16.40;99.90
24560;DHT22;12727;49.934;8.656;2022-09-09T05:04:07;16.40;99.90
24560;DHT22;12727;49.934;8.656;2022-09-09T05:06:34;16.40;99.90
24560;DHT22;12727;49.934;8.656;2022-09-09T05:09:01;16.40;99.90
24560;DHT22;12727;49.934;8.656;2022-09-09T05:11:29;16.40;99.90
24560;DHT22;12727;49.934;8.656;2022-09-09T05:13:55;16.40;99.90
24560;DHT22;12727;49.934;8.656;2022-09-09T05:16:22;16.40;99.90
24560;DHT22;12727;49.934;8.656;2022-09-09T05:18:48;16.50;99.90
24560;DHT22;12727;49.934;8.656;2022-09-09T05:21:16;16.40;99.90
24560;DHT22;12727;49.934;8.656;2022-09-09T05:23:42;16.50;99.90
24560;DHT22;12727;49.934;8.656;2022-09-09T05:26:14;16.50;99.90
24560;DHT22;12727;49.934;8.656;2022-09-09T05:28:40;16.50;99.90
24560;DHT22;12727;49.934;8.656;2022-09-09T05:31:07;16.50;99.90
24560;DHT22;12727;49.934;8.656;2022-09-09T05:33:34;16.40;99.90
24560;DHT22;12727;49.934;8.656;2022-09-09T05:36:10;16.50;99.90
24560;DHT22;12727;49.934;8.656;2022-09-09T05:38:36;16.40;99.90
24560;DHT22;12727;49.934;8.656;2022-09-09T05:41:03;16.40;99.90
24560;DHT22;12727;49.934;8.656;2022-09-09T05:43:29;16.40;99.90
24560;DHT22;12727;49.934;8.656;2022-09-09T05:46:06;16.40;99.90
24560;DHT22;12727;49.934;8.656;2022-09-09T05:48:35;16.40;99.90
24560;DHT22;12727;49.934;8.656;2022-09-09T05:51:04;16.40;99.90
24560;DHT22;12727;49.934;8.656;2022-09-09T05:53:30;16.40;99.90
24560;DHT22;12727;49.934;8.656;2022-09-09T05:56:09;16.40;99.90
24560;DHT22;12727;49.934;8.656;2022-09-09T05:58:40;16.40;99.90
24560;DHT22;12727;49.934;8.656;2022-09-09T06:01:11;16.50;99.90
24560;DHT22;12727;49.934;8.656;2022-09-09T06:03:39;16.40;99.90
24560;DHT22;12727;49.934;8.656;2022-09-09T06:06:10;16.40;99.90
24560;DHT22;12727;49.934;8.656;2022-09-09T06:08:38;16.40;99.90
24560;DHT22;12727;49.934;8.656;2022-09-09T06:11:09;16.50;99.90
24560;DHT22;12727;49.934;8.656;2022-09-09T06:13:36;16.60;99.90
24560;DHT22;12727;49.934;8.656;2022-09-09T06:16:09;16.70;99.90
24560;DHT22;12727;49.934;8.656;2022-09-09T06:18:37;16.90;99.90
24560;DHT22;12727;49.934;8.656;2022-09-09T06:21:05;17.00;99.90
24560;DHT22;12727;49.934;8.656;2022-09-09T06:23:32;17.30;99.90
24560;DHT22;12727;49.934;8.656;2022-09-09T06:26:25;17.50;99.90
24560;DHT22;12727;49.934;8.656;2022-09-09T06:28:53;17.70;99.90
24560;DHT22;12727;49.934;8.656;2022-09-09T06:31:21;17.80;99.90
24560;DHT22;12727;49.934;8.656;2022-09-09T06:33:48;17.80;99.90
24560;DHT22;12727;49.934;8.656;2022-09-09T06:36:26;18.00;99.90
24560;DHT22;12727;49.934;8.656;2022-09-09T06:38:52;18.10;99.90
24560;DHT22;12727;49.934;8.656;2022-09-09T06:41:20;18.10;99.90
24560;DHT22;12727;49.934;8.656;2022-09-09T06:43:46;18.10;99.90
24560;DHT22;12727;49.934;8.656;2022-09-09T06:46:13;18.10;99.90
24560;DHT22;12727;49.934;8.656;2022-09-09T06:48:40;18.10;99.90
24560;DHT22;12727;49.934;8.656;2022-09-09T06:51:12;18.00;99.90
24560;DHT22;12727;49.934;8.656;2022-09-09T06:53:39;18.00;99.90
24560;DHT22;12727;49.934;8.656;2022-09-09T06:58:40;18.00;99.90
24560;DHT22;12727;49.934;8.656;2022-09-09T07:01:09;18.10;99.90
24560;DHT22;12727;49.934;8.656;2022-09-09T07:03:35;18.30;99.90
24560;DHT22;12727;49.934;8.656;2022-09-09T07:06:01;18.30;99.90
24560;DHT22;12727;49.934;8.656;2022-09-09T07:08:27;18.20;99.90
24560;DHT22;12727;49.934;8.656;2022-09-09T07:10:53;18.10;99.90
24560;DHT22;12727;49.934;8.656;2022-09-09T07:13:24;18.00;99.90
24560;DHT22;12727;49.934;8.656;2022-09-09T07:15:53;18.00;99.90
24560;DHT22;12727;49.934;8.656;2022-09-09T07:18:19;17.90;99.90
24560;DHT22;12727;49.934;8.656;2022-09-09T07:20:54;17.80;99.90
24560;DHT22;12727;49.934;8.656;2022-09-09T07:23:22;17.80;99.90
24560;DHT22;12727;49.934;8.656;2022-09-09T07:25:47;17.80;99.90
24560;DHT22;12727;49.934;8.656;2022-09-09T07:28:14;17.80;99.90
24560;DHT22;12727;49.934;8.656;2022-09-09T07:30:39;17.80;99.90
24560;DHT22;12727;49.934;8.656;2022-09-09T07:33:05;17.80;99.90
24560;DHT22;12727;49.934;8.656;2022-09-09T07:35:31;17.80;99.90
24560;DHT22;12727;49.934;8.656;2022-09-09T07:37:57;17.80;99.90
24560;DHT22;12727;49.934;8.656;2022-09-09T07:40:23;17.80;99.90
24560;DHT22;12727;49.934;8.656;2022-09-09T07:42:49;17.90;99.90
24560;DHT22;12727;49.934;8.656;2022-09-09T07:45:14;17.80;99.90
24560;DHT22;12727;49.934;8.656;2022-09-09T07:47:40;17.90;99.90
24560;DHT22;12727;49.934;8.656;2022-09-09T07:50:08;17.90;99.90
24560;DHT22;12727;49.934;8.656;2022-09-09T07:52:34;18.00;99.90
24560;DHT22;12727;49.934;8.656;2022-09-09T07:55:00;18.10;99.90
24560;DHT22;12727;49.934;8.656;2022-09-09T07:57:28;18.30;99.90
24560;DHT22;12727;49.934;8.656;2022-09-09T07:59:55;18.60;99.90
24560;DHT22;12727;49.934;8.656;2022-09-09T08:02:22;19.00;99.90
24560;DHT22;12727;49.934;8.656;2022-09-09T08:04:48;19.00;99.90
24560;DHT22;12727;49.934;8.656;2022-09-09T08:07:14;19.50;99.90
24560;DHT22;12727;49.934;8.656;2022-09-09T08:09:39;19.70;99.90
24560;DHT22;12727;49.934;8.656;2022-09-09T08:12:05;19.70;99.90
24560;DHT22;12727;49.934;8.656;2022-09-09T08:14:34;19.50;99.90
24560;DHT22;12727;49.934;8.656;2022-09-09T08:16:59;19.40;99.90
24560;DHT22;12727;49.934;8.656;2022-09-09T08:19:25;19.20;99.90
24560;DHT22;12727;49.934;8.656;2022-09-09T08:21:52;19.10;99.90
24560;DHT22;12727;49.934;8.656;2022-09-09T08:24:19;19.00;99.90
24560;DHT22;12727;49.934;8.656;2022-09-09T08:26:46;18.90;99.90
24560;DHT22;12727;49.934;8.656;2022-09-09T08:29:15;19.00;99.90
24560;DHT22;12727;49.934;8.656;2022-09-09T08:31:45;19.10;99.90
24560;DHT22;12727;49.934;8.656;2022-09-09T08:34:11;19.50;99.90
24560;DHT22;12727;49.934;8.656;2022-09-09T08:36:42;19.40;99.90
24560;DHT22;12727;49.934;8.656;2022-09-09T08:39:09;19.40;99.90
24560;DHT22;12727;49.934;8.656;2022-09-09T08:47:11;19.00;99.90
24560;DHT22;12727;49.934;8.656;2022-09-09T08:53:02;19.20;99.90
24560;DHT22;12727;49.934;8.656;2022-09-09T08:55:54;19.30;99.90
24560;DHT22;12727;49.934;8.656;2022-09-09T08:58:30;19.20;99.90
24560;DHT22;12727;49.934;8.656;2022-09-09T09:01:16;19.10;99.90
24560;DHT22;12727;49.934;8.656;2022-09-09T09:04:26;19.00;99.90
24560;DHT22;12727;49.934;8.656;2022-09-09T09:06:49;19.10;99.90
24560;DHT22;12727;49.934;8.656;2022-09-09T09:12:18;19.10;99.90
24560;DHT22;12727;49.934;8.656;2022-09-09T09:14:46;19.00;99.90
24560;DHT22;12727;49.934;8.656;2022-09-09T09:17:14;19.00;99.90
24560;DHT22;12727;49.934;8.656;2022-09-09T09:19:43;18.90;99.90
24560;DHT22;12727;49.934;8.656;2022-09-09T09:22:19;18.80;99.90
24560;DHT22;12727;49.934;8.656;2022-09-09T09:24:56;18.70;99.90
24560;DHT22;12727;49.934;8.656;2022-09-09T09:30:00;18.70;99.90
24560;DHT22;12727;49.934;8.656;2022-09-09T09:32:29;18.70;99.90
24560;DHT22;12727;49.934;8.656;2022-09-09T09:34:59;18.70;99.90
24560;DHT22;12727;49.934;8.656;2022-09-09T09:37:31;20.00;99.90
24560;DHT22;12727;49.934;8.656;2022-09-09T09:40:15;20.80;99.90
24560;DHT22;12727;49.934;8.656;2022-09-09T09:42:51;22.00;99.90
24560;DHT22;12727;49.934;8.656;2022-09-09T09:48:05;22.30;99.90
24560;DHT22;12727;49.934;8.656;2022-09-09T09:50:32;21.80;99.50
24560;DHT22;12727;49.934;8.656;2022-09-09T09:53:01;21.50;98.90
24560;DHT22;12727;49.934;8.656;2022-09-09T09:55:30;21.20;99.80
24560;DHT22;12727;49.934;8.656;2022-09-09T09:58:06;21.00;99.70
24560;DHT22;12727;49.934;8.656;2022-09-09T10:00:33;20.90;99.60
24560;DHT22;12727;49.934;8.656;2022-09-09T10:03:00;21.00;99.30
24560;DHT22;12727;49.934;8.656;2022-09-09T10:05:30;22.00;97.40
24560;DHT22;12727;49.934;8.656;2022-09-09T10:08:10;22.10;95.30
24560;DHT22;12727;49.934;8.656;2022-09-09T10:11:02;21.50;96.30
24560;DHT22;12727;49.934;8.656;2022-09-09T10:19:00;20.50;96.60
24560;DHT22;12727;49.934;8.656;2022-09-09T10:21:48;20.40;96.70
24560;DHT22;12727;49.934;8.656;2022-09-09T10:24:44;20.50;96.30
24560;DHT22;12727;49.934;8.656;2022-09-09T10:30:46;24.20;89.20
24560;DHT22;12727;49.934;8.656;2022-09-09T10:33:32;25.50;81.50
24560;DHT22;12727;49.934;8.656;2022-09-09T10:36:21;25.80;74.40
24560;DHT22;12727;49.934;8.656;2022-09-09T10:39:10;24.70;77.60
24560;DHT22;12727;49.934;8.656;2022-09-09T10:44:46;24.30;75.90
24560;DHT22;12727;49.934;8.656;2022-09-09T10:47:30;23.20;75.70
24560;DHT22;12727;49.934;8.656;2022-09-09T10:53:14;21.10;86.70
24560;DHT22;12727;49.934;8.656;2022-09-09T10:55:48;22.00;86.30
24560;DHT22;12727;49.934;8.656;2022-09-09T10:58:28;23.90;80.80
24560;DHT22;12727;49.934;8.656;2022-09-09T11:01:02;25.00;75.90
24560;DHT22;12727;49.934;8.656;2022-09-09T11:03:34;24.90;74.60
24560;DHT22;12727;49.934;8.656;2022-09-09T11:08:32;24.90;75.00
24560;DHT22;12727;49.934;8.656;2022-09-09T11:13:44;23.70;75.90
24560;DHT22;12727;49.934;8.656;2022-09-09T11:16:42;23.20;79.50
24560;DHT22;12727;49.934;8.656;2022-09-09T11:19:17;22.90;79.90
24560;DHT22;12727;49.934;8.656;2022-09-09T11:21:48;22.50;80.90
24560;DHT22;12727;49.934;8.656;2022-09-09T11:24:24;22.40;80.70
24560;DHT22;12727;49.934;8.656;2022-09-09T11:29:53;22.40;83.00
24560;DHT22;12727;49.934;8.656;2022-09-09T11:35:33;22.40;82.40
24560;DHT22;12727;49.934;8.656;2022-09-09T11:40:59;22.70;83.20
24560;DHT22;12727;49.934;8.656;2022-09-09T11:43:46;22.90;81.40
24560;DHT22;12727;49.934;8.656;2022-09-09T11:46:15;22.90;78.30
24560;DHT22;12727;49.934;8.656;2022-09-09T11:48:59;22.40;79.70
24560;DHT22;12727;49.934;8.656;2022-09-09T11:51:26;22.40;80.20
24560;DHT22;12727;49.934;8.656;2022-09-09T11:56:47;22.40;81.10
24560;DHT22;12727;49.934;8.656;2022-09-09T12:02:17;22.20;81.20
24560;DHT22;12727;49.934;8.656;2022-09-09T12:04:59;22.10;82.10
24560;DHT22;12727;49.934;8.656;2022-09-09T12:07:33;22.10;81.70
24560;DHT22;12727;49.934;8.656;2022-09-09T12:12:46;21.90;81.90
24560;DHT22;12727;49.934;8.656;2022-09-09T12:23:04;21.60;84.60
24560;DHT22;12727;49.934;8.656;2022-09-09T12:28:33;21.80;84.70
24560;DHT22;12727;49.934;8.656;2022-09-09T12:33:44;21.90;84.60
24560;DHT22;12727;49.934;8.656;2022-09-09T12:36:15;21.80;84.40
24560;DHT22;12727;49.934;8.656;2022-09-09T12:38:43;21.70;84.60
24560;DHT22;12727;49.934;8.656;2022-09-09T12:41:22;21.60;84.80
24560;DHT22;12727;49.934;8.656;2022-09-09T12:43:49;21.50;83.80
24560;DHT22;12727;49.934;8.656;2022-09-09T12:46:42;21.20;86.40
24560;DHT22;12727;49.934;8.656;2022-09-09T12:49:31;21.10;90.20
24560;DHT22;12727;49.934;8.656;2022-09-09T12:52:03;20.90;88.30
24560;DHT22;12727;49.934;8.656;2022-09-09T12:54:31;20.80;85.50
24560;DHT22;12727;49.934;8.656;2022-09-09T12:56:57;20.80;82.40
24560;DHT22;12727;49.934;8.656;2022-09-09T12:59:35;20.90;79.90
24560;DHT22;12727;49.934;8.656;2022-09-09T13:02:01;21.00;77.00
24560;DHT22;12727;49.934;8.656;2022-09-09T13:04:27;21.00;78.20
24560;DHT22;12727;49.934;8.656;2022-09-09T13:06:53;20.90;77.90
24560;DHT22;12727;49.934;8.656;2022-09-09T13:09:19;20.80;78.10
24560;DHT22;12727;49.934;8.656;2022-09-09T13:11:54;20.60;77.00
24560;DHT22;12727;49.934;8.656;2022-09-09T13:14:31;20.30;77.30
24560;DHT22;12727;49.934;8.656;2022-09-09T13:17:02;20.10;79.00
24560;DHT22;12727;49.934;8.656;2022-09-09T13:19:40;19.90;79.60
24560;DHT22;12727;49.934;8.656;2022-09-09T13:22:30;19.60;78.60
24560;DHT22;12727;49.934;8.656;2022-09-09T13:25:20;19.50;79.50
24560;DHT22;12727;49.934;8.656;2022-09-09T13:27:59;19.50;80.00
24560;DHT22;12727;49.934;8.656;2022-09-09T13:30:29;19.60;79.70
24560;DHT22;12727;49.934;8.656;2022-09-09T13:35:52;19.60;79.70
24560;DHT22;12727;49.934;8.656;2022-09-09T13:38:19;19.60;79.70
24560;DHT22;12727;49.934;8.656;2022-09-09T13:41:01;19.40;80.60
24560;DHT22;12727;49.934;8.656;2022-09-09T13:43:31;19.60;80.80
24560;DHT22;12727;49.934;8.656;2022-09-09T13:46:01;19.60;81.40
24560;DHT22;12727;49.934;8.656;2022-09-09T13:48:28;19.50;81.10
24560;DHT22;12727;49.934;8.656;2022-09-09T13:51:00;19.50;81.40
24560;DHT22;12727;49.934;8.656;2022-09-09T13:53:27;19.80;81.30
24560;DHT22;12727;49.934;8.656;2022-09-09T13:55:53;20.10;80.90
24560;DHT22;12727;49.934;8.656;2022-09-09T13:58:19;20.60;79.30
24560;DHT22;12727;49.934;8.656;2022-09-09T14:00:46;20.80;79.40
24560;DHT22;12727;49.934;8.656;2022-09-09T14:03:12;20.70;79.10
24560;DHT22;12727;49.934;8.656;2022-09-09T14:05:39;20.60;80.10
24560;DHT22;12727;49.934;8.656;2022-09-09T14:08:06;20.50;80.80
24560;DHT22;12727;49.934;8.656;2022-09-09T14:10:33;20.40;82.20
24560;DHT22;12727;49.934;8.656;2022-09-09T14:13:02;20.30;82.30
24560;DHT22;12727;49.934;8.656;2022-09-09T14:15:28;20.20;82.80
24560;DHT22;12727;49.934;8.656;2022-09-09T14:17:54;20.10;83.10
24560;DHT22;12727;49.934;8.656;2022-09-09T14:20:20;20.00;82.40
24560;DHT22;12727;49.934;8.656;2022-09-09T14:22:46;19.80;82.10
24560;DHT22;12727;49.934;8.656;2022-09-09T14:25:11;19.70;82.50
24560;DHT22;12727;49.934;8.656;2022-09-09T14:27:39;19.60;82.80
24560;DHT22;12727;49.934;8.656;2022-09-09T14:30:05;19.60;83.40
24560;DHT22;12727;49.934;8.656;2022-09-09T14:32:31;19.50;84.90
24560;DHT22;12727;49.934;8.656;2022-09-09T14:34:56;19.40;86.40
24560;DHT22;12727;49.934;8.656;2022-09-09T14:37:22;19.30;88.00
24560;DHT22;12727;49.934;8.656;2022-09-09T14:39:47;19.30;90.00
24560;DHT22;12727;49.934;8.656;2022-09-09T14:42:15;19.30;90.00
24560;DHT22;12727;49.934;8.656;2022-09-09T14:44:41;19.50;90.30
24560;DHT22;12727;49.934;8.656;2022-09-09T14:47:08;19.30;90.40
24560;DHT22;12727;49.934;8.656;2022-09-09T14:49:34;19.40;90.80
24560;DHT22;12727;49.934;8.656;2022-09-09T14:52:00;19.30;91.00
24560;DHT22;12727;49.934;8.656;2022-09-09T14:54:26;19.40;91.10
24560;DHT22;12727;49.934;8.656;2022-09-09T14:56:51;19.40;91.20
24560;DHT22;12727;49.934;8.656;2022-09-09T14:59:17;19.50;91.40
24560;DHT22;12727;49.934;8.656;2022-09-09T15:01:43;19.40;91.40
24560;DHT22;12727;49.934;8.656;2022-09-09T15:04:12;19.50;91.50
24560;DHT22;12727;49.934;8.656;2022-09-09T15:06:39;19.60;91.40
24560;DHT22;12727;49.934;8.656;2022-09-09T15:09:06;19.60;91.20
24560;DHT22;12727;49.934;8.656;2022-09-09T15:11:36;19.50;91.10
24560;DHT22;12727;49.934;8.656;2022-09-09T15:14:04;19.40;90.90
24560;DHT22;12727;49.934;8.656;2022-09-09T15:16:30;19.50;91.00
24560;DHT22;12727;49.934;8.656;2022-09-09T15:18:58;19.60;90.70
24560;DHT22;12727;49.934;8.656;2022-09-09T15:21:27;19.60;90.70
24560;DHT22;12727;49.934;8.656;2022-09-09T15:23:54;19.60;90.60
24560;DHT22;12727;49.934;8.656;2022-09-09T15:26:20;19.70;90.50
24560;DHT22;12727;49.934;8.656;2022-09-09T15:28:47;19.70;90.50
24560;DHT22;12727;49.934;8.656;2022-09-09T15:31:31;19.90;90.20
24560;DHT22;12727;49.934;8.656;2022-09-09T15:34:03;20.00;89.00
24560;DHT22;12727;49.934;8.656;2022-09-09T15:36:33;20.10;89.20
24560;DHT22;12727;49.934;8.656;2022-09-09T15:39:00;20.30;88.90
24560;DHT22;12727;49.934;8.656;2022-09-09T15:41:27;20.50;88.50
24560;DHT22;12727;49.934;8.656;2022-09-09T15:43:55;20.60;88.20
24560;DHT22;12727;49.934;8.656;2022-09-09T15:46:27;20.50;88.20
24560;DHT22;12727;49.934;8.656;2022-09-09T15:48:58;20.50;88.70
24560;DHT22;12727;49.934;8.656;2022-09-09T15:51:27;20.50;88.80
24560;DHT22;12727;49.934;8.656;2022-09-09T15:53:58;20.40;89.20
24560;DHT22;12727;49.934;8.656;2022-09-09T15:56:26;20.30;89.70
24560;DHT22;12727;49.934;8.656;2022-09-09T15:58:53;20.20;90.30
24560;DHT22;12727;49.934;8.656;2022-09-09T16:01:19;20.10;90.50
24560;DHT22;12727;49.934;8.656;2022-09-09T16:03:45;20.20;90.90
24560;DHT22;12727;49.934;8.656;2022-09-09T16:06:17;20.10;91.00
24560;DHT22;12727;49.934;8.656;2022-09-09T16:08:45;20.10;91.30
24560;DHT22;12727;49.934;8.656;2022-09-09T16:11:20;20.00;91.90
24560;DHT22;12727;49.934;8.656;2022-09-09T16:13:47;19.90;91.70
24560;DHT22;12727;49.934;8.656;2022-09-09T16:16:14;19.70;91.90
24560;DHT22;12727;49.934;8.656;2022-09-09T16:18:45;19.80;92.20
24560;DHT22;12727;49.934;8.656;2022-09-09T16:21:20;19.60;92.40
24560;DHT22;12727;49.934;8.656;2022-09-09T16:23:46;19.60;92.60
24560;DHT22;12727;49.934;8.656;2022-09-09T16:26:16;19.50;93.00
24560;DHT22;12727;49.934;8.656;2022-09-09T16:28:42;19.40;93.20
24560;DHT22;12727;49.934;8.656;2022-09-09T16:31:09;19.40;93.30
24560;DHT22;12727;49.934;8.656;2022-09-09T16:33:36;19.40;93.10
24560;DHT22;12727;49.934;8.656;2022-09-09T16:36:14;19.30;92.70
24560;DHT22;12727;49.934;8.656;2022-09-09T16:38:41;19.20;92.60
24560;DHT22;12727;49.934;8.656;2022-09-09T16:41:10;19.10;92.30
24560;DHT22;12727;49.934;8.656;2022-09-09T16:43:37;19.10;92.10
24560;DHT22;12727;49.934;8.656;2022-09-09T16:46:13;19.10;92.10
24560;DHT22;12727;49.934;8.656;2022-09-09T16:48:41;18.90;92.10
24560;DHT22;12727;49.934;8.656;2022-09-09T16:51:15;18.90;92.30
24560;DHT22;12727;49.934;8.656;2022-09-09T16:53:42;18.80;92.50
24560;DHT22;12727;49.934;8.656;2022-09-09T16:56:17;18.70;92.70
24560;DHT22;12727;49.934;8.656;2022-09-09T16:58:49;18.70;92.70
24560;DHT22;12727;49.934;8.656;2022-09-09T17:01:16;18.60;92.60
24560;DHT22;12727;49.934;8.656;2022-09-09T17:03:41;18.60;92.60
24560;DHT22;12727;49.934;8.656;2022-09-09T17:06:12;18.40;92.60
24560;DHT22;12727;49.934;8.656;2022-09-09T17:08:41;18.60;92.90
24560;DHT22;12727;49.934;8.656;2022-09-09T17:11:17;18.60;93.10
24560;DHT22;12727;49.934;8.656;2022-09-09T17:13:45;18.50;93.30
24560;DHT22;12727;49.934;8.656;2022-09-09T17:16:11;18.50;93.50
24560;DHT22;12727;49.934;8.656;2022-09-09T17:18:38;18.40;93.80
24560;DHT22;12727;49.934;8.656;2022-09-09T17:21:09;18.40;94.20
24560;DHT22;12727;49.934;8.656;2022-09-09T17:23:36;18.30;94.40
24560;DHT22;12727;49.934;8.656;2022-09-09T17:26:08;18.30;94.70